Terminal Aerodrome Forecast
Issued by NWS

Home | Current Version | Previous Version | Text Only | Print | Product List | Glossary On
Versions: 1 2 3 4 5 6 7 8 9 10 11 12 13 14 15 16 17 18
000
FTUS41 KLWX 202334
TAFMTN
TAF
KMTN 202334Z 2100/2124 00000KT P6SM SKC
     FM210900 00000KT P6SM SCT050
     FM211400 14005KT P6SM SCT250
     FM211900 17009KT P6SM SCT200
      AMD NOT SKED 2102/2112=

USA.gov is the U.S. government's official web portal to all federal, state and local government web resources and services.